Amenia, North Dakota
Current Conditions -  °F | °C
As of 9:53 PM on Saturday 20 Dec 2014 (Local Time) from KFAR Reporting Station
Haze Haze  
Wind Chill: -6°   Ceiling: 700
Heat Index:   Visibility: 5mi
Dew Point: -2°   Wind: 21mph
Humidity: 85%   Direction: 170°S
Pressure: 29.9"   Gusts: 29mph
Location:  47°N, 97.22°W
Report Text: KFAR 210353Z 17018G25KT 5SM BR OVC007 01/M02 A2990 RMK AO2 PK WND 17026/0307 SLP137 T00061017
Loading
Personal Weather Stations






























Interactive Weather Map New forecast layout! Learn more

10-Day Weather Forecast

Advertisements
Track Severe Weather on mobile